sensor_id;sensor_type;location;lat;lon;timestamp;pressure;altitude;pressure_sealevel;temperature
22828;BMP180;11580;52.562;13.418;2023-12-20T00:02:22;99969.00;;;12.60
22828;BMP180;11580;52.562;13.418;2023-12-20T00:04:49;99974.00;;;12.60
22828;BMP180;11580;52.562;13.418;2023-12-20T00:07:16;99973.00;;;12.60
22828;BMP180;11580;52.562;13.418;2023-12-20T00:09:43;99961.00;;;12.60
22828;BMP180;11580;52.562;13.418;2023-12-20T00:12:12;99971.00;;;12.60
22828;BMP180;11580;52.562;13.418;2023-12-20T00:14:39;99966.00;;;12.60
22828;BMP180;11580;52.562;13.418;2023-12-20T00:17:06;99962.00;;;12.60
22828;BMP180;11580;52.562;13.418;2023-12-20T00:19:33;99951.00;;;12.60
22828;BMP180;11580;52.562;13.418;2023-12-20T00:22:00;99952.00;;;12.60
22828;BMP180;11580;52.562;13.418;2023-12-20T00:24:28;99951.00;;;12.60
22828;BMP180;11580;52.562;13.418;2023-12-20T00:26:55;99945.00;;;12.60
22828;BMP180;11580;52.562;13.418;2023-12-20T00:29:23;99941.00;;;12.60
22828;BMP180;11580;52.562;13.418;2023-12-20T00:31:50;99943.00;;;12.60
22828;BMP180;11580;52.562;13.418;2023-12-20T00:34:17;99941.00;;;12.60
22828;BMP180;11580;52.562;13.418;2023-12-20T00:36:44;99937.00;;;12.60
22828;BMP180;11580;52.562;13.418;2023-12-20T00:39:12;99944.00;;;12.60
22828;BMP180;11580;52.562;13.418;2023-12-20T00:41:39;99938.00;;;12.50
22828;BMP180;11580;52.562;13.418;2023-12-20T00:44:06;99935.00;;;12.50
22828;BMP180;11580;52.562;13.418;2023-12-20T00:46:35;99937.00;;;12.50
22828;BMP180;11580;52.562;13.418;2023-12-20T00:49:04;99951.00;;;12.50
22828;BMP180;11580;52.562;13.418;2023-12-20T00:51:31;99937.00;;;12.40
22828;BMP180;11580;52.562;13.418;2023-12-20T00:53:58;99942.00;;;12.50
22828;BMP180;11580;52.562;13.418;2023-12-20T00:56:25;99948.00;;;12.50
22828;BMP180;11580;52.562;13.418;2023-12-20T00:58:53;99938.00;;;12.50
22828;BMP180;11580;52.562;13.418;2023-12-20T01:01:20;99934.00;;;12.50
22828;BMP180;11580;52.562;13.418;2023-12-20T01:03:49;99944.00;;;12.50
22828;BMP180;11580;52.562;13.418;2023-12-20T01:06:17;99948.00;;;12.50
22828;BMP180;11580;52.562;13.418;2023-12-20T01:08:44;99930.00;;;12.50
22828;BMP180;11580;52.562;13.418;2023-12-20T01:11:12;99943.00;;;12.50
22828;BMP180;11580;52.562;13.418;2023-12-20T01:13:39;99944.00;;;12.50
22828;BMP180;11580;52.562;13.418;2023-12-20T01:16:05;99954.00;;;12.50
22828;BMP180;11580;52.562;13.418;2023-12-20T01:18:33;99952.00;;;12.50
22828;BMP180;11580;52.562;13.418;2023-12-20T01:21:03;99948.00;;;12.50
22828;BMP180;11580;52.562;13.418;2023-12-20T01:23:31;99946.00;;;12.50
22828;BMP180;11580;52.562;13.418;2023-12-20T01:25:58;99950.00;;;12.40
22828;BMP180;11580;52.562;13.418;2023-12-20T01:28:26;99939.00;;;12.40
22828;BMP180;11580;52.562;13.418;2023-12-20T01:30:54;99935.00;;;12.40
22828;BMP180;11580;52.562;13.418;2023-12-20T01:33:21;99937.00;;;12.40
22828;BMP180;11580;52.562;13.418;2023-12-20T01:35:48;99943.00;;;12.40
22828;BMP180;11580;52.562;13.418;2023-12-20T01:38:16;99943.00;;;12.40
22828;BMP180;11580;52.562;13.418;2023-12-20T01:40:45;99942.00;;;12.40
22828;BMP180;11580;52.562;13.418;2023-12-20T01:43:13;99940.00;;;12.30
22828;BMP180;11580;52.562;13.418;2023-12-20T01:45:40;99944.00;;;12.30
22828;BMP180;11580;52.562;13.418;2023-12-20T01:48:09;99944.00;;;12.30
22828;BMP180;11580;52.562;13.418;2023-12-20T01:50:37;99942.00;;;12.30
22828;BMP180;11580;52.562;13.418;2023-12-20T01:53:07;99932.00;;;12.20
22828;BMP180;11580;52.562;13.418;2023-12-20T01:55:40;99923.00;;;12.20
22828;BMP180;11580;52.562;13.418;2023-12-20T01:58:09;99927.00;;;12.20
22828;BMP180;11580;52.562;13.418;2023-12-20T02:00:37;99930.00;;;12.20
22828;BMP180;11580;52.562;13.418;2023-12-20T02:03:05;99939.00;;;12.20
22828;BMP180;11580;52.562;13.418;2023-12-20T02:05:35;99938.00;;;12.20
22828;BMP180;11580;52.562;13.418;2023-12-20T02:08:02;99931.00;;;12.20
22828;BMP180;11580;52.562;13.418;2023-12-20T02:10:30;99923.00;;;12.20
22828;BMP180;11580;52.562;13.418;2023-12-20T02:12:58;99909.00;;;12.20
22828;BMP180;11580;52.562;13.418;2023-12-20T02:15:26;99920.00;;;12.20
22828;BMP180;11580;52.562;13.418;2023-12-20T02:17:54;99919.00;;;12.20
22828;BMP180;11580;52.562;13.418;2023-12-20T02:20:21;99906.00;;;12.10
22828;BMP180;11580;52.562;13.418;2023-12-20T02:22:50;99922.00;;;12.10
22828;BMP180;11580;52.562;13.418;2023-12-20T02:25:17;99922.00;;;12.10
22828;BMP180;11580;52.562;13.418;2023-12-20T02:27:44;99916.00;;;12.10
22828;BMP180;11580;52.562;13.418;2023-12-20T02:30:12;99926.00;;;12.10
22828;BMP180;11580;52.562;13.418;2023-12-20T02:32:39;99922.00;;;12.00
22828;BMP180;11580;52.562;13.418;2023-12-20T02:35:06;99925.00;;;12.00
22828;BMP180;11580;52.562;13.418;2023-12-20T02:37:33;99926.00;;;12.00
22828;BMP180;11580;52.562;13.418;2023-12-20T02:40:02;99927.00;;;12.00
22828;BMP180;11580;52.562;13.418;2023-12-20T02:42:30;99914.00;;;12.00
22828;BMP180;11580;52.562;13.418;2023-12-20T02:44:57;99921.00;;;11.90
22828;BMP180;11580;52.562;13.418;2023-12-20T02:47:24;99921.00;;;11.90
22828;BMP180;11580;52.562;13.418;2023-12-20T02:49:50;99917.00;;;11.90
22828;BMP180;11580;52.562;13.418;2023-12-20T02:52:18;99920.00;;;11.90
22828;BMP180;11580;52.562;13.418;2023-12-20T02:54:46;99921.00;;;11.90
22828;BMP180;11580;52.562;13.418;2023-12-20T02:57:14;99926.00;;;11.90
22828;BMP180;11580;52.562;13.418;2023-12-20T02:59:41;99919.00;;;11.90
22828;BMP180;11580;52.562;13.418;2023-12-20T03:02:08;99918.00;;;12.00
22828;BMP180;11580;52.562;13.418;2023-12-20T03:04:35;99924.00;;;12.00
22828;BMP180;11580;52.562;13.418;2023-12-20T03:07:03;99928.00;;;12.00
22828;BMP180;11580;52.562;13.418;2023-12-20T03:09:30;99925.00;;;12.00
22828;BMP180;11580;52.562;13.418;2023-12-20T03:11:57;99930.00;;;11.90
22828;BMP180;11580;52.562;13.418;2023-12-20T03:14:25;99933.00;;;11.90
22828;BMP180;11580;52.562;13.418;2023-12-20T03:16:53;99919.00;;;11.90
22828;BMP180;11580;52.562;13.418;2023-12-20T03:19:20;99915.00;;;11.90
22828;BMP180;11580;52.562;13.418;2023-12-20T03:21:47;99916.00;;;11.80
22828;BMP180;11580;52.562;13.418;2023-12-20T03:24:14;99931.00;;;11.80
22828;BMP180;11580;52.562;13.418;2023-12-20T03:26:41;99930.00;;;11.80
22828;BMP180;11580;52.562;13.418;2023-12-20T03:29:08;99927.00;;;11.70
22828;BMP180;11580;52.562;13.418;2023-12-20T03:31:37;99932.00;;;11.70
22828;BMP180;11580;52.562;13.418;2023-12-20T03:34:04;99927.00;;;11.70
22828;BMP180;11580;52.562;13.418;2023-12-20T03:36:31;99933.00;;;11.60
22828;BMP180;11580;52.562;13.418;2023-12-20T03:38:58;99926.00;;;11.60
22828;BMP180;11580;52.562;13.418;2023-12-20T03:41:25;99931.00;;;11.50
22828;BMP180;11580;52.562;13.418;2023-12-20T03:43:52;99928.00;;;11.50
22828;BMP180;11580;52.562;13.418;2023-12-20T03:46:20;99921.00;;;11.50
22828;BMP180;11580;52.562;13.418;2023-12-20T03:48:48;99916.00;;;11.40
22828;BMP180;11580;52.562;13.418;2023-12-20T03:51:15;99908.00;;;11.40
22828;BMP180;11580;52.562;13.418;2023-12-20T03:53:43;99906.00;;;11.40
22828;BMP180;11580;52.562;13.418;2023-12-20T03:56:10;99915.00;;;11.40
22828;BMP180;11580;52.562;13.418;2023-12-20T03:58:37;99919.00;;;11.40
22828;BMP180;11580;52.562;13.418;2023-12-20T04:01:09;99891.00;;;11.40
22828;BMP180;11580;52.562;13.418;2023-12-20T04:03:38;99914.00;;;11.40
22828;BMP180;11580;52.562;13.418;2023-12-20T04:06:07;99905.00;;;11.40
22828;BMP180;11580;52.562;13.418;2023-12-20T04:08:34;99900.00;;;11.40
22828;BMP180;11580;52.562;13.418;2023-12-20T04:11:01;99894.00;;;11.40
22828;BMP180;11580;52.562;13.418;2023-12-20T04:13:29;99885.00;;;11.50
22828;BMP180;11580;52.562;13.418;2023-12-20T04:15:56;99890.00;;;11.50
22828;BMP180;11580;52.562;13.418;2023-12-20T04:18:23;99889.00;;;11.50
22828;BMP180;11580;52.562;13.418;2023-12-20T04:20:50;99889.00;;;11.50
22828;BMP180;11580;52.562;13.418;2023-12-20T04:23:18;99899.00;;;11.50
22828;BMP180;11580;52.562;13.418;2023-12-20T04:25:46;99894.00;;;11.50
22828;BMP180;11580;52.562;13.418;2023-12-20T04:28:13;99892.00;;;11.50
22828;BMP180;11580;52.562;13.418;2023-12-20T04:30:41;99885.00;;;11.40
22828;BMP180;11580;52.562;13.418;2023-12-20T04:33:08;99881.00;;;11.40
22828;BMP180;11580;52.562;13.418;2023-12-20T04:35:35;99889.00;;;11.40
22828;BMP180;11580;52.562;13.418;2023-12-20T04:38:03;99882.00;;;11.30
22828;BMP180;11580;52.562;13.418;2023-12-20T04:40:31;99897.00;;;11.20
22828;BMP180;11580;52.562;13.418;2023-12-20T04:42:58;99893.00;;;11.10
22828;BMP180;11580;52.562;13.418;2023-12-20T04:45:25;99886.00;;;11.00
22828;BMP180;11580;52.562;13.418;2023-12-20T04:47:52;99890.00;;;10.90
22828;BMP180;11580;52.562;13.418;2023-12-20T04:50:20;99895.00;;;10.80
22828;BMP180;11580;52.562;13.418;2023-12-20T04:52:47;99878.00;;;10.80
22828;BMP180;11580;52.562;13.418;2023-12-20T04:55:14;99877.00;;;10.70
22828;BMP180;11580;52.562;13.418;2023-12-20T04:57:43;99879.00;;;10.60
22828;BMP180;11580;52.562;13.418;2023-12-20T05:00:11;99883.00;;;10.50
22828;BMP180;11580;52.562;13.418;2023-12-20T05:02:41;99883.00;;;10.50
22828;BMP180;11580;52.562;13.418;2023-12-20T05:05:08;99883.00;;;10.50
22828;BMP180;11580;52.562;13.418;2023-12-20T05:07:36;99883.00;;;10.50
22828;BMP180;11580;52.562;13.418;2023-12-20T05:10:04;99885.00;;;10.50
22828;BMP180;11580;52.562;13.418;2023-12-20T05:12:31;99884.00;;;10.50
22828;BMP180;11580;52.562;13.418;2023-12-20T05:14:59;99884.00;;;10.60
22828;BMP180;11580;52.562;13.418;2023-12-20T05:17:26;99887.00;;;10.60
22828;BMP180;11580;52.562;13.418;2023-12-20T05:19:54;99896.00;;;10.60
22828;BMP180;11580;52.562;13.418;2023-12-20T05:22:21;99885.00;;;10.70
22828;BMP180;11580;52.562;13.418;2023-12-20T05:24:48;99895.00;;;10.70
22828;BMP180;11580;52.562;13.418;2023-12-20T05:27:15;99889.00;;;10.70
22828;BMP180;11580;52.562;13.418;2023-12-20T05:29:42;99894.00;;;10.60
22828;BMP180;11580;52.562;13.418;2023-12-20T05:32:11;99890.00;;;10.60
22828;BMP180;11580;52.562;13.418;2023-12-20T05:34:38;99887.00;;;10.50
22828;BMP180;11580;52.562;13.418;2023-12-20T05:37:05;99881.00;;;10.40
22828;BMP180;11580;52.562;13.418;2023-12-20T05:39:32;99880.00;;;10.40
22828;BMP180;11580;52.562;13.418;2023-12-20T05:41:59;99875.00;;;10.30
22828;BMP180;11580;52.562;13.418;2023-12-20T05:44:26;99888.00;;;10.20
22828;BMP180;11580;52.562;13.418;2023-12-20T05:46:54;99872.00;;;10.10
22828;BMP180;11580;52.562;13.418;2023-12-20T05:49:22;99871.00;;;10.10
22828;BMP180;11580;52.562;13.418;2023-12-20T05:51:49;99865.00;;;10.00
22828;BMP180;11580;52.562;13.418;2023-12-20T05:54:17;99854.00;;;10.00
22828;BMP180;11580;52.562;13.418;2023-12-20T05:56:44;99860.00;;;9.90
22828;BMP180;11580;52.562;13.418;2023-12-20T05:59:11;99856.00;;;9.80
22828;BMP180;11580;52.562;13.418;2023-12-20T06:01:39;99859.00;;;9.80
22828;BMP180;11580;52.562;13.418;2023-12-20T06:04:06;99845.00;;;9.80
22828;BMP180;11580;52.562;13.418;2023-12-20T06:06:41;99848.00;;;9.70
22828;BMP180;11580;52.562;13.418;2023-12-20T06:09:08;99846.00;;;9.70
22828;BMP180;11580;52.562;13.418;2023-12-20T06:11:35;99859.00;;;9.80
22828;BMP180;11580;52.562;13.418;2023-12-20T06:14:03;99849.00;;;9.80
22828;BMP180;11580;52.562;13.418;2023-12-20T06:16:31;99847.00;;;9.80
22828;BMP180;11580;52.562;13.418;2023-12-20T06:18:58;99845.00;;;9.90
22828;BMP180;11580;52.562;13.418;2023-12-20T06:21:25;99844.00;;;9.90
22828;BMP180;11580;52.562;13.418;2023-12-20T06:23:53;99849.00;;;9.90
22828;BMP180;11580;52.562;13.418;2023-12-20T06:26:21;99864.00;;;9.90
22828;BMP180;11580;52.562;13.418;2023-12-20T06:28:48;99853.00;;;9.90
22828;BMP180;11580;52.562;13.418;2023-12-20T06:31:15;99857.00;;;9.90
22828;BMP180;11580;52.562;13.418;2023-12-20T06:33:43;99854.00;;;9.90
22828;BMP180;11580;52.562;13.418;2023-12-20T06:36:11;99856.00;;;9.90
22828;BMP180;11580;52.562;13.418;2023-12-20T06:38:39;99856.00;;;9.90
22828;BMP180;11580;52.562;13.418;2023-12-20T06:41:07;99850.00;;;10.00
22828;BMP180;11580;52.562;13.418;2023-12-20T06:43:34;99855.00;;;10.00
22828;BMP180;11580;52.562;13.418;2023-12-20T06:46:01;99847.00;;;10.10
22828;BMP180;11580;52.562;13.418;2023-12-20T06:48:28;99852.00;;;10.10
22828;BMP180;11580;52.562;13.418;2023-12-20T06:50:55;99841.00;;;10.10
22828;BMP180;11580;52.562;13.418;2023-12-20T06:53:23;99826.00;;;10.20
22828;BMP180;11580;52.562;13.418;2023-12-20T06:55:50;99836.00;;;10.20
22828;BMP180;11580;52.562;13.418;2023-12-20T06:58:18;99833.00;;;10.20
22828;BMP180;11580;52.562;13.418;2023-12-20T07:00:45;99846.00;;;10.20
22828;BMP180;11580;52.562;13.418;2023-12-20T07:03:12;99831.00;;;10.20
22828;BMP180;11580;52.562;13.418;2023-12-20T07:05:40;99829.00;;;10.30
22828;BMP180;11580;52.562;13.418;2023-12-20T07:08:07;99823.00;;;10.30
22828;BMP180;11580;52.562;13.418;2023-12-20T07:10:34;99831.00;;;10.30
22828;BMP180;11580;52.562;13.418;2023-12-20T07:13:02;99830.00;;;10.30
22828;BMP180;11580;52.562;13.418;2023-12-20T07:15:31;99835.00;;;10.30
22828;BMP180;11580;52.562;13.418;2023-12-20T07:17:58;99830.00;;;10.30
22828;BMP180;11580;52.562;13.418;2023-12-20T07:20:26;99830.00;;;10.40
22828;BMP180;11580;52.562;13.418;2023-12-20T07:22:53;99835.00;;;10.40
22828;BMP180;11580;52.562;13.418;2023-12-20T07:25:21;99831.00;;;10.40
22828;BMP180;11580;52.562;13.418;2023-12-20T07:27:48;99841.00;;;10.50
22828;BMP180;11580;52.562;13.418;2023-12-20T07:30:15;99831.00;;;10.50
22828;BMP180;11580;52.562;13.418;2023-12-20T07:32:44;99835.00;;;10.60
22828;BMP180;11580;52.562;13.418;2023-12-20T07:35:11;99826.00;;;10.60
22828;BMP180;11580;52.562;13.418;2023-12-20T07:37:38;99822.00;;;10.60
22828;BMP180;11580;52.562;13.418;2023-12-20T07:40:07;99821.00;;;10.70
22828;BMP180;11580;52.562;13.418;2023-12-20T07:42:35;99809.00;;;10.70
22828;BMP180;11580;52.562;13.418;2023-12-20T07:45:03;99817.00;;;10.70
22828;BMP180;11580;52.562;13.418;2023-12-20T07:47:30;99827.00;;;10.80
22828;BMP180;11580;52.562;13.418;2023-12-20T07:49:58;99817.00;;;10.80
22828;BMP180;11580;52.562;13.418;2023-12-20T07:52:26;99810.00;;;10.80
22828;BMP180;11580;52.562;13.418;2023-12-20T07:54:53;99822.00;;;10.80
22828;BMP180;11580;52.562;13.418;2023-12-20T07:57:21;99820.00;;;10.80
22828;BMP180;11580;52.562;13.418;2023-12-20T07:59:48;99817.00;;;10.80
22828;BMP180;11580;52.562;13.418;2023-12-20T08:02:15;99826.00;;;10.90
22828;BMP180;11580;52.562;13.418;2023-12-20T08:04:42;99833.00;;;10.90
22828;BMP180;11580;52.562;13.418;2023-12-20T08:07:11;99823.00;;;10.90
22828;BMP180;11580;52.562;13.418;2023-12-20T08:09:38;99828.00;;;11.00
22828;BMP180;11580;52.562;13.418;2023-12-20T08:12:06;99830.00;;;11.00
22828;BMP180;11580;52.562;13.418;2023-12-20T08:14:33;99826.00;;;11.00
22828;BMP180;11580;52.562;13.418;2023-12-20T08:17:01;99830.00;;;11.10
22828;BMP180;11580;52.562;13.418;2023-12-20T08:19:28;99827.00;;;11.10
22828;BMP180;11580;52.562;13.418;2023-12-20T08:21:55;99830.00;;;11.20
22828;BMP180;11580;52.562;13.418;2023-12-20T08:24:23;99825.00;;;11.20
22828;BMP180;11580;52.562;13.418;2023-12-20T08:26:50;99836.00;;;11.20
22828;BMP180;11580;52.562;13.418;2023-12-20T08:29:18;99840.00;;;11.20
22828;BMP180;11580;52.562;13.418;2023-12-20T08:31:46;99830.00;;;11.20
22828;BMP180;11580;52.562;13.418;2023-12-20T08:34:18;99824.00;;;11.20
22828;BMP180;11580;52.562;13.418;2023-12-20T08:36:45;99822.00;;;11.20
22828;BMP180;11580;52.562;13.418;2023-12-20T08:39:12;99817.00;;;11.20
22828;BMP180;11580;52.562;13.418;2023-12-20T08:41:41;99813.00;;;11.30
22828;BMP180;11580;52.562;13.418;2023-12-20T08:44:08;99812.00;;;11.30
22828;BMP180;11580;52.562;13.418;2023-12-20T08:46:36;99805.00;;;11.40
22828;BMP180;11580;52.562;13.418;2023-12-20T08:49:03;99796.00;;;11.40
22828;BMP180;11580;52.562;13.418;2023-12-20T08:51:31;99801.00;;;11.50
22828;BMP180;11580;52.562;13.418;2023-12-20T08:53:59;99803.00;;;11.60
22828;BMP180;11580;52.562;13.418;2023-12-20T08:56:26;99805.00;;;11.60
22828;BMP180;11580;52.562;13.418;2023-12-20T08:58:55;99798.00;;;11.70
22828;BMP180;11580;52.562;13.418;2023-12-20T09:01:22;99795.00;;;11.70
22828;BMP180;11580;52.562;13.418;2023-12-20T09:03:49;99802.00;;;11.80
22828;BMP180;11580;52.562;13.418;2023-12-20T09:06:16;99790.00;;;11.80
22828;BMP180;11580;52.562;13.418;2023-12-20T09:08:43;99803.00;;;11.80
22828;BMP180;11580;52.562;13.418;2023-12-20T09:11:11;99804.00;;;11.80
22828;BMP180;11580;52.562;13.418;2023-12-20T09:13:38;99798.00;;;11.90
22828;BMP180;11580;52.562;13.418;2023-12-20T09:16:06;99750.00;;;12.00
22828;BMP180;11580;52.562;13.418;2023-12-20T09:18:34;99805.00;;;12.00
22828;BMP180;11580;52.562;13.418;2023-12-20T09:21:01;99799.00;;;12.10
22828;BMP180;11580;52.562;13.418;2023-12-20T09:23:28;99806.00;;;12.20
22828;BMP180;11580;52.562;13.418;2023-12-20T09:25:55;99794.00;;;12.20
22828;BMP180;11580;52.562;13.418;2023-12-20T09:28:23;99795.00;;;12.30
22828;BMP180;11580;52.562;13.418;2023-12-20T09:30:50;99802.00;;;12.30
22828;BMP180;11580;52.562;13.418;2023-12-20T09:33:18;99790.00;;;12.30
22828;BMP180;11580;52.562;13.418;2023-12-20T09:35:45;99788.00;;;12.30
22828;BMP180;11580;52.562;13.418;2023-12-20T09:38:13;99783.00;;;12.30
22828;BMP180;11580;52.562;13.418;2023-12-20T09:40:42;99782.00;;;12.30
22828;BMP180;11580;52.562;13.418;2023-12-20T09:43:11;99799.00;;;12.30
22828;BMP180;11580;52.562;13.418;2023-12-20T09:45:41;99787.00;;;12.30
22828;BMP180;11580;52.562;13.418;2023-12-20T09:48:11;99783.00;;;12.30
22828;BMP180;11580;52.562;13.418;2023-12-20T09:50:42;99794.00;;;12.30
22828;BMP180;11580;52.562;13.418;2023-12-20T09:53:13;99782.00;;;12.30
22828;BMP180;11580;52.562;13.418;2023-12-20T09:55:42;99786.00;;;12.30
22828;BMP180;11580;52.562;13.418;2023-12-20T09:58:09;99783.00;;;12.30
22828;BMP180;11580;52.562;13.418;2023-12-20T10:00:36;99776.00;;;12.30
22828;BMP180;11580;52.562;13.418;2023-12-20T10:03:06;99789.00;;;12.30
22828;BMP180;11580;52.562;13.418;2023-12-20T10:05:34;99773.00;;;12.30
22828;BMP180;11580;52.562;13.418;2023-12-20T10:08:03;99764.00;;;12.30
22828;BMP180;11580;52.562;13.418;2023-12-20T10:10:30;99763.00;;;12.30
22828;BMP180;11580;52.562;13.418;2023-12-20T10:13:06;99753.00;;;12.30
22828;BMP180;11580;52.562;13.418;2023-12-20T10:15:35;99750.00;;;12.30
22828;BMP180;11580;52.562;13.418;2023-12-20T10:18:04;99724.00;;;12.30
22828;BMP180;11580;52.562;13.418;2023-12-20T10:20:32;99744.00;;;12.30
22828;BMP180;11580;52.562;13.418;2023-12-20T10:23:01;99738.00;;;12.30
22828;BMP180;11580;52.562;13.418;2023-12-20T10:25:28;99726.00;;;12.30
22828;BMP180;11580;52.562;13.418;2023-12-20T10:28:10;99743.00;;;12.30
22828;BMP180;11580;52.562;13.418;2023-12-20T10:30:38;99732.00;;;12.30
22828;BMP180;11580;52.562;13.418;2023-12-20T10:33:06;99736.00;;;12.30
22828;BMP180;11580;52.562;13.418;2023-12-20T10:35:34;99724.00;;;12.30
22828;BMP180;11580;52.562;13.418;2023-12-20T10:38:05;99710.00;;;12.20
22828;BMP180;11580;52.562;13.418;2023-12-20T10:40:35;99712.00;;;12.20
22828;BMP180;11580;52.562;13.418;2023-12-20T10:43:04;99702.00;;;12.30
22828;BMP180;11580;52.562;13.418;2023-12-20T10:45:33;99701.00;;;12.30
22828;BMP180;11580;52.562;13.418;2023-12-20T10:48:02;99692.00;;;12.20
22828;BMP180;11580;52.562;13.418;2023-12-20T10:50:30;99685.00;;;12.40
22828;BMP180;11580;52.562;13.418;2023-12-20T10:52:58;99687.00;;;12.50
22828;BMP180;11580;52.562;13.418;2023-12-20T10:55:28;99673.00;;;12.50
22828;BMP180;11580;52.562;13.418;2023-12-20T10:58:02;99673.00;;;12.60
22828;BMP180;11580;52.562;13.418;2023-12-20T11:00:31;99680.00;;;12.60
22828;BMP180;11580;52.562;13.418;2023-12-20T11:03:01;99663.00;;;12.60
22828;BMP180;11580;52.562;13.418;2023-12-20T11:05:39;99685.00;;;12.60
22828;BMP180;11580;52.562;13.418;2023-12-20T11:08:13;99669.00;;;12.60
22828;BMP180;11580;52.562;13.418;2023-12-20T11:10:55;99662.00;;;12.60
22828;BMP180;11580;52.562;13.418;2023-12-20T11:13:30;99664.00;;;12.60
22828;BMP180;11580;52.562;13.418;2023-12-20T11:16:00;99658.00;;;12.60
22828;BMP180;11580;52.562;13.418;2023-12-20T11:18:29;99655.00;;;12.60
22828;BMP180;11580;52.562;13.418;2023-12-20T11:21:01;99655.00;;;12.70
22828;BMP180;11580;52.562;13.418;2023-12-20T11:23:30;99644.00;;;12.70
22828;BMP180;11580;52.562;13.418;2023-12-20T11:26:02;99630.00;;;12.70
22828;BMP180;11580;52.562;13.418;2023-12-20T11:28:29;99627.00;;;12.60
22828;BMP180;11580;52.562;13.418;2023-12-20T11:30:58;99626.00;;;12.60
22828;BMP180;11580;52.562;13.418;2023-12-20T11:33:29;99629.00;;;12.60
22828;BMP180;11580;52.562;13.418;2023-12-20T11:35:58;99620.00;;;12.60
22828;BMP180;11580;52.562;13.418;2023-12-20T11:38:26;99614.00;;;12.60
22828;BMP180;11580;52.562;13.418;2023-12-20T11:40:54;99623.00;;;12.60
22828;BMP180;11580;52.562;13.418;2023-12-20T11:43:35;99608.00;;;12.60
22828;BMP180;11580;52.562;13.418;2023-12-20T11:46:04;99604.00;;;12.50
22828;BMP180;11580;52.562;13.418;2023-12-20T11:48:33;99590.00;;;12.60
22828;BMP180;11580;52.562;13.418;2023-12-20T11:51:01;99565.00;;;12.60
22828;BMP180;11580;52.562;13.418;2023-12-20T11:53:29;99582.00;;;12.60
22828;BMP180;11580;52.562;13.418;2023-12-20T11:55:58;99569.00;;;12.60
22828;BMP180;11580;52.562;13.418;2023-12-20T11:58:25;99575.00;;;12.60
22828;BMP180;11580;52.562;13.418;2023-12-20T12:00:55;99563.00;;;12.70
22828;BMP180;11580;52.562;13.418;2023-12-20T12:03:23;99549.00;;;12.70
22828;BMP180;11580;52.562;13.418;2023-12-20T12:05:50;99550.00;;;12.80
22828;BMP180;11580;52.562;13.418;2023-12-20T12:08:18;99544.00;;;12.80
22828;BMP180;11580;52.562;13.418;2023-12-20T12:10:45;99534.00;;;12.90
22828;BMP180;11580;52.562;13.418;2023-12-20T12:13:13;99534.00;;;13.00
22828;BMP180;11580;52.562;13.418;2023-12-20T12:15:42;99525.00;;;13.00
22828;BMP180;11580;52.562;13.418;2023-12-20T12:18:15;99520.00;;;13.00
22828;BMP180;11580;52.562;13.418;2023-12-20T12:20:42;99508.00;;;13.00
22828;BMP180;11580;52.562;13.418;2023-12-20T12:23:10;99508.00;;;13.00
22828;BMP180;11580;52.562;13.418;2023-12-20T12:25:37;99505.00;;;12.90
22828;BMP180;11580;52.562;13.418;2023-12-20T12:28:05;99506.00;;;12.90
22828;BMP180;11580;52.562;13.418;2023-12-20T12:30:32;99500.00;;;12.90
22828;BMP180;11580;52.562;13.418;2023-12-20T12:33:00;99500.00;;;12.80
22828;BMP180;11580;52.562;13.418;2023-12-20T12:35:28;99499.00;;;12.80
22828;BMP180;11580;52.562;13.418;2023-12-20T12:37:58;99484.00;;;12.70
22828;BMP180;11580;52.562;13.418;2023-12-20T12:40:26;99491.00;;;12.70
22828;BMP180;11580;52.562;13.418;2023-12-20T12:42:53;99477.00;;;12.60
22828;BMP180;11580;52.562;13.418;2023-12-20T12:45:20;99481.00;;;12.50
22828;BMP180;11580;52.562;13.418;2023-12-20T12:47:48;99470.00;;;12.40
22828;BMP180;11580;52.562;13.418;2023-12-20T12:50:15;99467.00;;;12.40
22828;BMP180;11580;52.562;13.418;2023-12-20T12:52:44;99466.00;;;12.30
22828;BMP180;11580;52.562;13.418;2023-12-20T12:55:11;99457.00;;;12.20
22828;BMP180;11580;52.562;13.418;2023-12-20T12:57:38;99460.00;;;12.20
22828;BMP180;11580;52.562;13.418;2023-12-20T13:00:07;99448.00;;;12.10
22828;BMP180;11580;52.562;13.418;2023-12-20T13:02:35;99444.00;;;12.10
22828;BMP180;11580;52.562;13.418;2023-12-20T13:05:04;99435.00;;;12.10
22828;BMP180;11580;52.562;13.418;2023-12-20T13:07:31;99454.00;;;12.00
22828;BMP180;11580;52.562;13.418;2023-12-20T13:10:00;99480.00;;;12.00
22828;BMP180;11580;52.562;13.418;2023-12-20T13:12:27;99468.00;;;12.00
22828;BMP180;11580;52.562;13.418;2023-12-20T13:14:55;99480.00;;;12.00
22828;BMP180;11580;52.562;13.418;2023-12-20T13:17:22;99489.00;;;11.90
22828;BMP180;11580;52.562;13.418;2023-12-20T13:19:49;99508.00;;;11.80
22828;BMP180;11580;52.562;13.418;2023-12-20T13:22:16;99510.00;;;11.80
22828;BMP180;11580;52.562;13.418;2023-12-20T13:24:44;99501.00;;;11.70
22828;BMP180;11580;52.562;13.418;2023-12-20T13:27:13;99517.00;;;11.60
22828;BMP180;11580;52.562;13.418;2023-12-20T13:29:40;99501.00;;;11.50
22828;BMP180;11580;52.562;13.418;2023-12-20T13:32:07;99499.00;;;11.50
22828;BMP180;11580;52.562;13.418;2023-12-20T13:34:34;99480.00;;;11.50
22828;BMP180;11580;52.562;13.418;2023-12-20T13:37:01;99485.00;;;11.40
22828;BMP180;11580;52.562;13.418;2023-12-20T13:39:30;99478.00;;;11.40
22828;BMP180;11580;52.562;13.418;2023-12-20T13:41:57;99468.00;;;11.40
22828;BMP180;11580;52.562;13.418;2023-12-20T13:44:26;99471.00;;;11.30
22828;BMP180;11580;52.562;13.418;2023-12-20T13:46:53;99477.00;;;11.30
22828;BMP180;11580;52.562;13.418;2023-12-20T13:49:20;99483.00;;;11.30
22828;BMP180;11580;52.562;13.418;2023-12-20T13:51:51;99468.00;;;11.30
22828;BMP180;11580;52.562;13.418;2023-12-20T13:54:20;99506.00;;;11.20
22828;BMP180;11580;52.562;13.418;2023-12-20T13:56:48;99502.00;;;11.20
22828;BMP180;11580;52.562;13.418;2023-12-20T13:59:15;99503.00;;;11.10
22828;BMP180;11580;52.562;13.418;2023-12-20T14:01:44;99507.00;;;11.00